Time;durP1;ratioP1;P1;durP2;ratioP2;P2;SDS_P1;SDS_P2;PMS_P1;PMS_P2;Temp;Humidity;BMP_temperature;BMP_pressure;BME280_temperature;BME280_humidity;BME280_pressure;Samples;Min_cycle;Max_cycle;Signal;HPM_P1;HPM_P2
2023/05/15 00:01:29;;;;;;;18.10;12.82;;;;;;;;;;5050998;28;20040;-68
2023/05/15 00:03:55;;;;;;;18.60;13.23;;;;;;;;;;5051545;28;20420;-68
2023/05/15 00:06:20;;;;;;;18.77;13.75;;;;;;;;;;5051764;28;20033;-67
2023/05/15 00:08:45;;;;;;;22.92;13.57;;;;;;;;;;5056772;28;20895;-67
2023/05/15 00:11:11;;;;;;;20.90;14.88;;;;;;;;;;5052846;28;20040;-68
2023/05/15 00:13:37;;;;;;;22.45;14.68;;;;;;;;;;5066126;28;20515;-68
2023/05/15 00:16:05;;;;;;;22.25;15.45;;;;;;;;;;5052350;28;20094;-67
2023/05/15 00:18:30;;;;;;;21.98;15.27;;;;;;;;;;5058335;28;20047;-68
2023/05/15 00:20:55;;;;;;;21.42;15.77;;;;;;;;;;5049692;28;20457;-67
2023/05/15 00:23:21;;;;;;;23.73;16.23;;;;;;;;;;5064814;28;20057;-66
2023/05/15 00:25:46;;;;;;;24.60;16.42;;;;;;;;;;5069791;28;20526;-68
2023/05/15 00:28:12;;;;;;;22.75;17.15;;;;;;;;;;5057626;28;20056;-67
2023/05/15 00:30:37;;;;;;;21.67;16.38;;;;;;;;;;5049769;28;20048;-68
2023/05/15 00:33:02;;;;;;;24.17;16.42;;;;;;;;;;5070810;28;20469;-67
2023/05/15 00:35:28;;;;;;;23.98;17.23;;;;;;;;;;5057315;28;20033;-67
2023/05/15 00:37:53;;;;;;;24.23;17.20;;;;;;;;;;5060371;28;20256;-68
2023/05/15 00:40:22;;;;;;;26.00;17.65;;;;;;;;;;5062013;28;20389;-67
2023/05/15 00:42:49;;;;;;;24.10;17.27;;;;;;;;;;5069520;28;20043;-68
2023/05/15 00:45:15;;;;;;;23.17;17.02;;;;;;;;;;5067214;28;20048;-68
2023/05/15 00:47:42;;;;;;;24.90;16.88;;;;;;;;;;5058251;28;20443;-69
2023/05/15 00:50:08;;;;;;;28.55;17.70;;;;;;;;;;5054655;28;20173;-68
2023/05/15 00:52:36;;;;;;;24.15;17.13;;;;;;;;;;5069140;28;20032;-69
2023/05/15 00:55:01;;;;;;;23.77;17.25;;;;;;;;;;5060677;28;20428;-68
2023/05/15 00:57:28;;;;;;;22.92;16.88;;;;;;;;;;5064017;28;20056;-67
2023/05/15 00:59:55;;;;;;;22.65;17.15;;;;;;;;;;5049422;28;20106;-69
2023/05/15 01:02:21;;;;;;;21.45;16.67;;;;;;;;;;5051732;28;20473;-68
2023/05/15 01:04:47;;;;;;;25.20;16.63;;;;;;;;;;5065400;28;20033;-68
2023/05/15 01:07:12;;;;;;;23.90;16.40;;;;;;;;;;5067433;28;20089;-69
2023/05/15 01:09:43;;;;;;;25.35;17.77;;;;;;;;;;5049513;28;20021;-67
2023/05/15 01:12:10;;;;;;;25.10;17.38;;;;;;;;;;5051104;28;20033;-67
2023/05/15 01:14:35;;;;;;;21.90;16.42;;;;;;;;;;5049260;28;20112;-69
2023/05/15 01:17:01;;;;;;;27.45;17.58;;;;;;;;;;5054222;28;20474;-67
2023/05/15 01:19:26;;;;;;;24.52;17.42;;;;;;;;;;5064408;28;20028;-67
2023/05/15 01:22:13;;;;;;;24.88;17.08;;;;;;;;;;5063827;28;20821;-68
2023/05/15 01:24:52;;;;;;;22.67;17.15;;;;;;;;;;5067672;28;20024;-68
2023/05/15 01:27:23;;;;;;;22.00;16.08;;;;;;;;;;5065401;28;20031;-69
2023/05/15 01:30:08;;;;;;;21.23;15.80;;;;;;;;;;5053096;28;20040;-69
2023/05/15 01:32:42;;;;;;;25.95;17.20;;;;;;;;;;5062170;28;20111;-69
2023/05/15 01:35:13;;;;;;;25.98;17.70;;;;;;;;;;5070134;28;20035;-68
2023/05/15 01:37:42;;;;;;;22.25;16.58;;;;;;;;;;5065789;28;20053;-68
2023/05/15 01:40:10;;;;;;;28.25;18.20;;;;;;;;;;5050952;28;20025;-69
2023/05/15 01:42:40;;;;;;;25.60;17.70;;;;;;;;;;5051559;28;20033;-69
2023/05/15 01:45:10;;;;;;;23.73;17.63;;;;;;;;;;5059801;28;20059;-68
2023/05/15 01:47:45;;;;;;;23.88;17.70;;;;;;;;;;5064828;28;20037;-70
2023/05/15 01:50:14;;;;;;;27.63;18.08;;;;;;;;;;5050054;28;20107;-68
2023/05/15 01:52:43;;;;;;;25.60;18.55;;;;;;;;;;5050021;28;20475;-69
2023/05/15 01:55:10;;;;;;;26.52;18.30;;;;;;;;;;5062660;28;20037;-67
2023/05/15 01:57:36;;;;;;;33.08;19.33;;;;;;;;;;5069619;28;20040;-70
2023/05/15 02:00:02;;;;;;;28.27;20.05;;;;;;;;;;5053973;28;20081;-68
2023/05/15 02:02:28;;;;;;;28.08;19.25;;;;;;;;;;5063900;28;20033;-68
2023/05/15 02:04:55;;;;;;;28.48;19.05;;;;;;;;;;5054842;28;20507;-68
2023/05/15 02:07:20;;;;;;;29.00;19.15;;;;;;;;;;5054770;28;20040;-67
2023/05/15 02:09:47;;;;;;;26.63;19.45;;;;;;;;;;5053750;28;20074;-68
2023/05/15 02:12:13;;;;;;;27.55;18.42;;;;;;;;;;5061797;28;20056;-68
2023/05/15 02:14:41;;;;;;;28.52;18.55;;;;;;;;;;5059006;28;20035;-70
2023/05/15 02:17:07;;;;;;;27.98;18.45;;;;;;;;;;5072251;28;20029;-69
2023/05/15 02:19:32;;;;;;;29.52;20.00;;;;;;;;;;5071464;28;20425;-67
2023/05/15 02:21:58;;;;;;;31.27;20.35;;;;;;;;;;5055218;28;20028;-69
2023/05/15 02:24:23;;;;;;;30.17;21.13;;;;;;;;;;5056280;28;20508;-67
2023/05/15 02:26:58;;;;;;;30.10;20.95;;;;;;;;;;5058952;28;20037;-69
2023/05/15 02:29:27;;;;;;;34.47;19.98;;;;;;;;;;5063435;28;20054;-67
2023/05/15 02:32:27;;;;;;;32.60;21.40;;;;;;;;;;5067481;28;20467;-68
2023/05/15 02:35:11;;;;;;;36.43;20.27;;;;;;;;;;5050633;28;20402;-69
2023/05/15 02:37:38;;;;;;;29.02;20.17;;;;;;;;;;5052459;28;20462;-68
2023/05/15 02:40:08;;;;;;;34.40;22.15;;;;;;;;;;5057376;28;20535;-68
2023/05/15 02:42:35;;;;;;;34.55;21.92;;;;;;;;;;5069547;28;20037;-68
2023/05/15 02:45:02;;;;;;;35.88;21.38;;;;;;;;;;5066982;28;20052;-68
2023/05/15 02:47:28;;;;;;;42.78;24.48;;;;;;;;;;5053218;28;20051;-67
2023/05/15 02:49:54;;;;;;;57.72;27.33;;;;;;;;;;5053371;28;20037;-67
2023/05/15 02:52:21;;;;;;;58.63;28.00;;;;;;;;;;5053510;28;20115;-67
2023/05/15 02:54:46;;;;;;;54.97;28.90;;;;;;;;;;5055468;28;20051;-68
2023/05/15 02:57:12;;;;;;;59.00;28.85;;;;;;;;;;5053318;28;20533;-68
2023/05/15 02:59:37;;;;;;;59.00;29.40;;;;;;;;;;5058379;28;20070;-67
2023/05/15 03:02:03;;;;;;;69.47;31.65;;;;;;;;;;5055233;28;20462;-69
2023/05/15 03:04:28;;;;;;;66.38;32.53;;;;;;;;;;5064359;28;20029;-67
2023/05/15 03:06:54;;;;;;;75.43;32.40;;;;;;;;;;5052839;28;20472;-69
2023/05/15 03:09:19;;;;;;;80.25;33.45;;;;;;;;;;5065443;28;20484;-67
2023/05/15 03:11:45;;;;;;;81.18;35.70;;;;;;;;;;5055557;28;20433;-68
2023/05/15 03:14:10;;;;;;;79.47;35.67;;;;;;;;;;5062132;28;20029;-68
2023/05/15 03:16:37;;;;;;;77.38;35.90;;;;;;;;;;5065484;28;20044;-67
2023/05/15 03:19:03;;;;;;;77.18;35.38;;;;;;;;;;5047190;28;20028;-69
2023/05/15 03:21:28;;;;;;;73.85;35.30;;;;;;;;;;5067436;28;20033;-67
2023/05/15 03:23:55;;;;;;;74.03;35.47;;;;;;;;;;5052255;28;20068;-67
2023/05/15 03:26:20;;;;;;;75.90;36.33;;;;;;;;;;5061379;28;20093;-68
2023/05/15 03:28:46;;;;;;;78.93;36.90;;;;;;;;;;5058113;28;20482;-68
2023/05/15 03:31:13;;;;;;;79.95;36.28;;;;;;;;;;5062842;28;20028;-67
2023/05/15 03:33:39;;;;;;;84.32;38.20;;;;;;;;;;5061720;28;20101;-71
2023/05/15 03:36:05;;;;;;;72.88;37.65;;;;;;;;;;5055897;28;20044;-72
2023/05/15 03:38:30;;;;;;;79.35;38.28;;;;;;;;;;5052355;28;20110;-71
2023/05/15 03:40:56;;;;;;;79.45;36.38;;;;;;;;;;5048626;28;20037;-72
2023/05/15 03:43:21;;;;;;;82.95;36.17;;;;;;;;;;5055367;28;20120;-73
2023/05/15 03:45:47;;;;;;;74.07;36.45;;;;;;;;;;5071029;28;20044;-71
2023/05/15 03:48:12;;;;;;;79.07;37.33;;;;;;;;;;5071703;28;20028;-72
2023/05/15 03:50:39;;;;;;;83.25;38.72;;;;;;;;;;5054680;28;20032;-72
2023/05/15 03:53:04;;;;;;;80.90;38.47;;;;;;;;;;5053690;28;20108;-72
2023/05/15 03:55:30;;;;;;;84.93;39.83;;;;;;;;;;5068820;28;20438;-72
2023/05/15 03:57:56;;;;;;;81.38;38.90;;;;;;;;;;5065896;28;20056;-73
2023/05/15 04:00:22;;;;;;;81.03;38.50;;;;;;;;;;5060098;28;20038;-72
2023/05/15 04:02:48;;;;;;;84.85;39.95;;;;;;;;;;5059620;28;20119;-71
2023/05/15 04:05:13;;;;;;;77.07;39.20;;;;;;;;;;5063091;28;20083;-72
2023/05/15 04:07:39;;;;;;;83.88;38.88;;;;;;;;;;5051224;28;20075;-72
2023/05/15 04:10:05;;;;;;;88.70;40.53;;;;;;;;;;5061153;28;20020;-72
2023/05/15 04:12:32;;;;;;;75.85;36.78;;;;;;;;;;5061327;28;20032;-73
2023/05/15 04:15:12;;;;;;;80.13;38.42;;;;;;;;;;5066300;28;20385;-72
2023/05/15 04:17:37;;;;;;;73.32;37.20;;;;;;;;;;5055819;28;20055;-72
2023/05/15 04:20:04;;;;;;;75.28;38.28;;;;;;;;;;5059666;28;20658;-72
2023/05/15 04:22:30;;;;;;;75.25;36.03;;;;;;;;;;5054262;28;20029;-72
2023/05/15 04:24:55;;;;;;;72.70;35.03;;;;;;;;;;5052737;28;20044;-72
2023/05/15 04:27:21;;;;;;;68.93;34.80;;;;;;;;;;5054634;28;20461;-71
2023/05/15 04:29:46;;;;;;;70.75;36.00;;;;;;;;;;5051390;28;20025;-70
2023/05/15 04:32:12;;;;;;;71.38;36.42;;;;;;;;;;5055483;28;20163;-72
2023/05/15 04:34:37;;;;;;;80.00;37.92;;;;;;;;;;5050284;28;20049;-73
2023/05/15 04:37:03;;;;;;;71.57;35.88;;;;;;;;;;5051051;28;20036;-72
2023/05/15 04:39:29;;;;;;;71.97;36.67;;;;;;;;;;5052637;28;20032;-72
2023/05/15 04:41:55;;;;;;;69.38;34.67;;;;;;;;;;5051042;28;20044;-72
2023/05/15 04:44:20;;;;;;;70.40;35.95;;;;;;;;;;5051760;28;20429;-73
2023/05/15 04:46:46;;;;;;;65.22;34.70;;;;;;;;;;5051117;28;20025;-71
2023/05/15 04:49:11;;;;;;;67.05;34.83;;;;;;;;;;5068857;28;20056;-72
2023/05/15 04:51:36;;;;;;;60.30;33.03;;;;;;;;;;5052026;28;20044;-71
2023/05/15 04:54:02;;;;;;;60.55;33.55;;;;;;;;;;5052409;28;20493;-70
2023/05/15 04:56:29;;;;;;;64.38;33.40;;;;;;;;;;5053519;28;20032;-72
2023/05/15 04:58:54;;;;;;;57.08;32.92;;;;;;;;;;5052989;28;20074;-70
2023/05/15 05:01:20;;;;;;;54.63;30.65;;;;;;;;;;5051207;28;20029;-72
2023/05/15 05:03:46;;;;;;;56.28;31.58;;;;;;;;;;5061860;28;20044;-70
2023/05/15 05:06:11;;;;;;;58.30;32.75;;;;;;;;;;5067491;28;20040;-70
2023/05/15 05:08:37;;;;;;;64.80;33.05;;;;;;;;;;5067731;28;20517;-71
2023/05/15 05:11:03;;;;;;;61.13;33.13;;;;;;;;;;5057912;28;20488;-72
2023/05/15 05:13:28;;;;;;;66.93;33.75;;;;;;;;;;5064056;28;20029;-72
2023/05/15 05:15:53;;;;;;;73.40;35.03;;;;;;;;;;5049170;28;20383;-72
2023/05/15 05:18:19;;;;;;;69.82;34.22;;;;;;;;;;5059765;28;20453;-72
2023/05/15 05:20:44;;;;;;;77.20;36.00;;;;;;;;;;5070978;28;20059;-72
2023/05/15 05:23:09;;;;;;;87.75;37.63;;;;;;;;;;5070709;28;20094;-73
2023/05/15 05:25:35;;;;;;;75.60;35.70;;;;;;;;;;5071907;28;20029;-72
2023/05/15 05:28:00;;;;;;;70.80;35.08;;;;;;;;;;5059371;28;20191;-72
2023/05/15 05:30:26;;;;;;;76.57;35.00;;;;;;;;;;5058113;28;20029;-72
2023/05/15 05:32:51;;;;;;;73.10;36.03;;;;;;;;;;5056814;28;20036;-69
2023/05/15 05:35:16;;;;;;;79.88;37.15;;;;;;;;;;5063980;28;20036;-72
2023/05/15 05:37:42;;;;;;;79.93;36.50;;;;;;;;;;5053528;28;20045;-72
2023/05/15 05:40:08;;;;;;;77.70;38.00;;;;;;;;;;5054338;28;20833;-72
2023/05/15 05:42:33;;;;;;;87.32;39.35;;;;;;;;;;5058734;28;20034;-71
2023/05/15 05:44:59;;;;;;;80.45;38.45;;;;;;;;;;5068661;28;20028;-71
2023/05/15 05:47:24;;;;;;;79.97;37.67;;;;;;;;;;5060336;28;20116;-72
2023/05/15 05:49:50;;;;;;;79.22;36.85;;;;;;;;;;5055481;28;20040;-71
2023/05/15 05:52:15;;;;;;;72.25;35.78;;;;;;;;;;5055037;28;20525;-72
2023/05/15 05:54:41;;;;;;;69.15;34.42;;;;;;;;;;5055377;28;20021;-72
2023/05/15 05:57:08;;;;;;;73.45;35.67;;;;;;;;;;5053944;28;20055;-72
2023/05/15 05:59:34;;;;;;;74.72;36.75;;;;;;;;;;5061195;28;20087;-72
2023/05/15 06:02:00;;;;;;;68.85;33.63;;;;;;;;;;5054187;28;20033;-72
2023/05/15 06:04:25;;;;;;;85.63;37.58;;;;;;;;;;5055705;28;20090;-72
2023/05/15 06:06:51;;;;;;;78.65;37.70;;;;;;;;;;5069054;28;20378;-72
2023/05/15 06:09:17;;;;;;;79.63;36.08;;;;;;;;;;5068786;28;20036;-72
2023/05/15 06:11:42;;;;;;;79.35;36.15;;;;;;;;;;5053384;28;20456;-73
2023/05/15 06:14:08;;;;;;;86.03;37.28;;;;;;;;;;5053644;28;20052;-72
2023/05/15 06:16:34;;;;;;;79.38;36.30;;;;;;;;;;5058152;28;20033;-72
2023/05/15 06:18:59;;;;;;;76.65;36.40;;;;;;;;;;5052957;28;20041;-73
2023/05/15 06:21:25;;;;;;;81.43;36.33;;;;;;;;;;5054508;28;20056;-72
2023/05/15 06:23:50;;;;;;;79.75;37.10;;;;;;;;;;5054494;28;20079;-73
2023/05/15 06:26:15;;;;;;;81.30;36.92;;;;;;;;;;5057510;28;20416;-72
2023/05/15 06:28:41;;;;;;;75.78;36.08;;;;;;;;;;5059656;28;20359;-72
2023/05/15 06:31:06;;;;;;;75.57;35.05;;;;;;;;;;5052684;28;20484;-72
2023/05/15 06:33:32;;;;;;;78.95;34.97;;;;;;;;;;5056070;28;20464;-72
2023/05/15 06:35:57;;;;;;;70.43;35.45;;;;;;;;;;5053336;28;20094;-71
2023/05/15 06:38:22;;;;;;;67.53;34.63;;;;;;;;;;5053396;28;20482;-72
2023/05/15 06:40:48;;;;;;;66.68;33.92;;;;;;;;;;5056197;28;20041;-71
2023/05/15 06:43:13;;;;;;;75.10;35.05;;;;;;;;;;5071807;28;20056;-72
2023/05/15 06:45:38;;;;;;;71.80;34.38;;;;;;;;;;5072634;28;20036;-71
2023/05/15 06:48:04;;;;;;;75.10;35.78;;;;;;;;;;5053698;28;20120;-72
2023/05/15 06:50:29;;;;;;;80.45;37.70;;;;;;;;;;5053971;28;20094;-72
2023/05/15 06:52:55;;;;;;;80.43;37.05;;;;;;;;;;5067984;28;20075;-69
2023/05/15 06:55:20;;;;;;;79.28;37.25;;;;;;;;;;5054521;28;20037;-72
2023/05/15 06:57:46;;;;;;;83.05;36.15;;;;;;;;;;5060831;28;20072;-71
2023/05/15 07:00:12;;;;;;;82.88;37.80;;;;;;;;;;5055268;28;20039;-72
2023/05/15 07:02:37;;;;;;;79.60;37.60;;;;;;;;;;5085981;28;20055;-72
2023/05/15 07:05:02;;;;;;;81.47;37.08;;;;;;;;;;5053258;28;20454;-71
2023/05/15 07:07:28;;;;;;;76.07;35.58;;;;;;;;;;5054657;28;20056;-71
2023/05/15 07:09:53;;;;;;;75.93;35.33;;;;;;;;;;5052817;28;20048;-70
2023/05/15 07:12:18;;;;;;;78.05;36.58;;;;;;;;;;5052886;28;20074;-72
2023/05/15 07:14:44;;;;;;;81.45;38.22;;;;;;;;;;5053232;28;20389;-72
2023/05/15 07:17:09;;;;;;;76.07;35.28;;;;;;;;;;5059287;28;20044;-72
2023/05/15 07:19:35;;;;;;;74.78;36.78;;;;;;;;;;5071831;28;20031;-72
2023/05/15 07:22:00;;;;;;;68.28;34.22;;;;;;;;;;5071181;28;20082;-71
2023/05/15 07:24:26;;;;;;;57.45;30.70;;;;;;;;;;5068952;28;20029;-72
2023/05/15 07:26:51;;;;;;;55.42;30.73;;;;;;;;;;5060934;28;20428;-72
2023/05/15 07:29:16;;;;;;;53.75;30.23;;;;;;;;;;5060142;28;20693;-72
2023/05/15 07:31:43;;;;;;;48.85;28.90;;;;;;;;;;5053785;28;20033;-72
2023/05/15 07:34:10;;;;;;;51.03;26.90;;;;;;;;;;5052679;28;20036;-72
2023/05/15 07:36:35;;;;;;;46.13;26.05;;;;;;;;;;5052923;28;20051;-71
2023/05/15 07:39:01;;;;;;;45.22;26.40;;;;;;;;;;5069860;28;20045;-70
2023/05/15 07:41:26;;;;;;;37.17;23.35;;;;;;;;;;5055625;28;20025;-71
2023/05/15 07:43:51;;;;;;;34.65;20.75;;;;;;;;;;5057877;28;20431;-70
2023/05/15 07:46:17;;;;;;;34.72;22.60;;;;;;;;;;5072352;28;20106;-71
2023/05/15 07:48:42;;;;;;;31.38;20.75;;;;;;;;;;5058038;28;20055;-71
2023/05/15 07:51:07;;;;;;;31.92;21.77;;;;;;;;;;5069798;28;20051;-71
2023/05/15 07:53:33;;;;;;;28.52;19.70;;;;;;;;;;5062458;28;20029;-71
2023/05/15 07:55:58;;;;;;;31.73;20.88;;;;;;;;;;5052687;28;20355;-70
2023/05/15 07:58:24;;;;;;;31.63;20.45;;;;;;;;;;5052064;28;20033;-71
2023/05/15 08:00:50;;;;;;;28.25;20.23;;;;;;;;;;5052053;28;20401;-71
2023/05/15 08:03:15;;;;;;;29.77;20.67;;;;;;;;;;5051850;28;20036;-71
2023/05/15 08:05:41;;;;;;;33.90;22.30;;;;;;;;;;5052302;28;20037;-71
2023/05/15 08:08:06;;;;;;;32.08;21.08;;;;;;;;;;5057190;28;20040;-71
2023/05/15 08:10:31;;;;;;;29.65;21.05;;;;;;;;;;5059053;28;20040;-71
2023/05/15 08:12:57;;;;;;;31.00;20.75;;;;;;;;;;5058612;28;20516;-70
2023/05/15 08:15:23;;;;;;;30.23;20.15;;;;;;;;;;5070238;28;20040;-71
2023/05/15 08:17:48;;;;;;;29.77;20.23;;;;;;;;;;5069336;28;20040;-71
2023/05/15 08:20:13;;;;;;;28.20;19.00;;;;;;;;;;5067761;28;20037;-71
2023/05/15 08:22:39;;;;;;;31.75;19.25;;;;;;;;;;5071346;28;20067;-71
2023/05/15 08:25:05;;;;;;;25.23;18.48;;;;;;;;;;5071332;28;20111;-71
2023/05/15 08:27:31;;;;;;;25.88;18.00;;;;;;;;;;5059295;28;20115;-71
2023/05/15 08:29:56;;;;;;;28.90;18.65;;;;;;;;;;5072337;28;20103;-71
2023/05/15 08:32:22;;;;;;;26.20;18.13;;;;;;;;;;5062637;28;20462;-72
2023/05/15 08:37:25;;;;;;;27.95;18.50;;;;;;;;;;5284664;23;20025;-61
2023/05/15 08:39:51;;;;;;;28.85;18.67;;;;;;;;;;5058737;28;20123;-61
2023/05/15 08:42:47;;;;;;;26.90;18.45;;;;;;;;;;5052748;28;20496;-61
2023/05/15 08:45:13;;;;;;;29.30;18.17;;;;;;;;;;5051707;28;20051;-62
2023/05/15 08:47:40;;;;;;;25.05;17.30;;;;;;;;;;5051026;28;20457;-61
2023/05/15 08:50:06;;;;;;;24.85;17.40;;;;;;;;;;5051727;28;20352;-62
2023/05/15 08:52:32;;;;;;;22.77;16.35;;;;;;;;;;5053219;28;20024;-63
2023/05/15 08:54:59;;;;;;;20.45;15.98;;;;;;;;;;5070376;28;20025;-63
2023/05/15 08:57:26;;;;;;;26.00;16.90;;;;;;;;;;5071201;28;20094;-63
2023/05/15 08:59:53;;;;;;;22.45;16.38;;;;;;;;;;5070928;28;20060;-62
2023/05/15 09:02:19;;;;;;;25.27;16.75;;;;;;;;;;5069438;28;20028;-61
2023/05/15 09:04:44;;;;;;;23.20;15.50;;;;;;;;;;5070365;28;20115;-61
2023/05/15 09:07:10;;;;;;;20.63;15.88;;;;;;;;;;5070282;28;20028;-61
2023/05/15 09:09:36;;;;;;;22.77;15.77;;;;;;;;;;5068598;28;20430;-61
2023/05/15 09:12:03;;;;;;;21.83;15.10;;;;;;;;;;5070117;28;20032;-62
2023/05/15 09:14:28;;;;;;;26.15;15.70;;;;;;;;;;5069504;28;20460;-63
2023/05/15 09:16:54;;;;;;;22.58;16.15;;;;;;;;;;5070892;28;20028;-62
2023/05/15 09:19:21;;;;;;;21.88;15.10;;;;;;;;;;5068526;28;20487;-62
2023/05/15 09:21:46;;;;;;;20.42;16.05;;;;;;;;;;5069056;28;20032;-62
2023/05/15 09:24:23;;;;;;;21.10;15.70;;;;;;;;;;5070187;28;20032;-62
2023/05/15 09:27:03;;;;;;;22.63;15.35;;;;;;;;;;5064722;28;20064;-62
2023/05/15 09:29:30;;;;;;;21.33;15.18;;;;;;;;;;5069960;28;20118;-62
2023/05/15 09:31:56;;;;;;;21.55;14.68;;;;;;;;;;5070889;28;20725;-62
2023/05/15 09:34:30;;;;;;;19.77;14.77;;;;;;;;;;5068603;28;20476;-62
2023/05/15 09:36:55;;;;;;;20.13;14.70;;;;;;;;;;5069595;28;20814;-62
2023/05/15 09:39:24;;;;;;;24.67;14.90;;;;;;;;;;5070511;28;20056;-62
2023/05/15 09:41:50;;;;;;;19.55;15.00;;;;;;;;;;5069063;28;20032;-62
2023/05/15 09:44:23;;;;;;;22.10;15.07;;;;;;;;;;5069623;28;20044;-62
2023/05/15 09:46:50;;;;;;;18.90;14.52;;;;;;;;;;5070746;28;20214;-62
2023/05/15 09:49:15;;;;;;;22.33;14.45;;;;;;;;;;5068999;28;20107;-62
2023/05/15 09:51:43;;;;;;;19.92;13.98;;;;;;;;;;5069045;28;20108;-62
2023/05/15 09:54:15;;;;;;;20.42;14.07;;;;;;;;;;5070817;28;20048;-62
2023/05/15 09:56:45;;;;;;;20.25;14.25;;;;;;;;;;5063043;28;20071;-62
2023/05/15 09:59:17;;;;;;;20.33;13.38;;;;;;;;;;5069484;28;20456;-62
2023/05/15 10:01:44;;;;;;;20.50;14.30;;;;;;;;;;5069901;28;20032;-61
2023/05/15 10:04:10;;;;;;;18.75;13.52;;;;;;;;;;5068575;28;20033;-62
2023/05/15 10:06:37;;;;;;;22.30;12.90;;;;;;;;;;5068409;28;20033;-63
2023/05/15 10:09:03;;;;;;;18.48;13.70;;;;;;;;;;5070553;28;20568;-62
2023/05/15 10:11:34;;;;;;;17.73;13.30;;;;;;;;;;5071003;28;20036;-62
2023/05/15 10:14:01;;;;;;;16.23;12.90;;;;;;;;;;5070482;28;20052;-63
2023/05/15 10:16:28;;;;;;;15.68;12.55;;;;;;;;;;5074241;28;20068;-61
2023/05/15 10:18:56;;;;;;;19.23;12.75;;;;;;;;;;5070385;28;20056;-62
2023/05/15 10:21:22;;;;;;;17.05;12.68;;;;;;;;;;5072533;28;20097;-62
2023/05/15 10:23:49;;;;;;;16.77;12.85;;;;;;;;;;5072771;28;20029;-62
2023/05/15 10:26:22;;;;;;;17.50;13.13;;;;;;;;;;5071736;28;20491;-62
2023/05/15 10:28:48;;;;;;;16.95;12.38;;;;;;;;;;5072558;28;20033;-63
2023/05/15 10:31:15;;;;;;;18.50;12.68;;;;;;;;;;5074395;28;20020;-62
2023/05/15 10:33:42;;;;;;;16.55;12.55;;;;;;;;;;5072318;28;20109;-62
2023/05/15 10:36:08;;;;;;;14.77;11.52;;;;;;;;;;5073970;28;20082;-63
2023/05/15 10:38:35;;;;;;;15.38;12.38;;;;;;;;;;5072557;28;20435;-63
2023/05/15 10:41:03;;;;;;;14.45;11.00;;;;;;;;;;5072899;28;20054;-63
2023/05/15 10:43:29;;;;;;;17.80;11.63;;;;;;;;;;5072617;28;20039;-62
2023/05/15 10:45:55;;;;;;;15.35;11.82;;;;;;;;;;5073319;28;20029;-63
2023/05/15 10:48:21;;;;;;;14.48;11.50;;;;;;;;;;5074452;28;20029;-63
2023/05/15 10:50:48;;;;;;;17.52;11.57;;;;;;;;;;5073466;28;20037;-60
2023/05/15 10:53:13;;;;;;;15.32;11.68;;;;;;;;;;5071323;28;20029;-60
2023/05/15 10:55:39;;;;;;;17.60;12.20;;;;;;;;;;5068204;28;20366;-62
2023/05/15 10:58:09;;;;;;;16.90;11.15;;;;;;;;;;5064763;28;20024;-62
2023/05/15 11:00:41;;;;;;;14.35;10.65;;;;;;;;;;5072875;28;20529;-61
2023/05/15 11:03:06;;;;;;;12.93;10.65;;;;;;;;;;5072973;28;20124;-62
2023/05/15 11:06:10;;;;;;;13.57;10.32;;;;;;;;;;5071373;28;20107;-63
2023/05/15 11:08:43;;;;;;;13.00;9.88;;;;;;;;;;5074110;28;20024;-62
2023/05/15 11:11:54;;;;;;;14.25;9.25;;;;;;;;;;5069715;28;20036;-63
2023/05/15 11:14:23;;;;;;;10.95;6.95;;;;;;;;;;5073914;28;20078;-63
2023/05/15 11:16:54;;;;;;;12.13;6.80;;;;;;;;;;5073136;28;20040;-63
2023/05/15 11:19:31;;;;;;;15.18;7.68;;;;;;;;;;5072159;28;20059;-62
2023/05/15 11:22:05;;;;;;;11.90;7.57;;;;;;;;;;5070088;28;20032;-63
2023/05/15 11:24:32;;;;;;;13.60;8.07;;;;;;;;;;5073082;28;20028;-61
2023/05/15 11:27:02;;;;;;;10.30;7.55;;;;;;;;;;5070183;28;20036;-62
2023/05/15 11:29:28;;;;;;;11.10;8.70;;;;;;;;;;5068259;28;20035;-62
2023/05/15 11:31:54;;;;;;;9.85;8.02;;;;;;;;;;5068919;28;20044;-61
2023/05/15 11:34:32;;;;;;;11.30;7.53;;;;;;;;;;5071072;28;20078;-63
2023/05/15 11:37:01;;;;;;;12.15;6.40;;;;;;;;;;5072606;28;20099;-61
2023/05/15 11:39:27;;;;;;;10.90;4.90;;;;;;;;;;5072194;28;20512;-61
2023/05/15 11:41:53;;;;;;;6.47;5.32;;;;;;;;;;5070168;28;20044;-61
2023/05/15 11:44:23;;;;;;;8.30;5.85;;;;;;;;;;5073352;28;20089;-61
2023/05/15 11:46:52;;;;;;;11.77;6.78;;;;;;;;;;5072408;28;20086;-61
2023/05/15 11:49:18;;;;;;;9.52;6.60;;;;;;;;;;5071517;28;20115;-61
2023/05/15 11:51:44;;;;;;;11.02;7.63;;;;;;;;;;5072744;28;20468;-61
2023/05/15 11:54:11;;;;;;;12.93;8.32;;;;;;;;;;5070995;28;20041;-62
2023/05/15 11:56:44;;;;;;;9.98;7.90;;;;;;;;;;5072218;28;20032;-62
2023/05/15 11:59:16;;;;;;;9.75;7.72;;;;;;;;;;5070876;28;20035;-62
2023/05/15 12:01:46;;;;;;;10.18;7.65;;;;;;;;;;5071221;28;20043;-63
2023/05/15 12:04:15;;;;;;;13.32;7.70;;;;;;;;;;5072673;28;20032;-62
2023/05/15 12:06:40;;;;;;;8.35;7.10;;;;;;;;;;5070985;28;20038;-63
2023/05/15 12:09:12;;;;;;;7.75;6.35;;;;;;;;;;5072170;28;20107;-63
2023/05/15 12:11:38;;;;;;;8.10;5.22;;;;;;;;;;5071247;28;20116;-63
2023/05/15 12:14:03;;;;;;;9.13;4.75;;;;;;;;;;5071119;28;20111;-61
2023/05/15 12:16:28;;;;;;;10.27;5.20;;;;;;;;;;5068814;28;20029;-61
2023/05/15 12:18:57;;;;;;;6.78;4.57;;;;;;;;;;5071644;28;20455;-61
2023/05/15 12:21:25;;;;;;;5.93;4.28;;;;;;;;;;5070764;28;20459;-62
2023/05/15 12:23:52;;;;;;;7.25;5.60;;;;;;;;;;5070275;28;20072;-61
2023/05/15 12:26:20;;;;;;;8.55;4.35;;;;;;;;;;5069397;28;20028;-62
2023/05/15 12:28:45;;;;;;;5.72;4.80;;;;;;;;;;5071461;28;20464;-60
2023/05/15 12:31:11;;;;;;;7.30;5.13;;;;;;;;;;5070007;28;20085;-61
2023/05/15 12:33:37;;;;;;;6.70;5.20;;;;;;;;;;5057880;28;20062;-61
2023/05/15 12:36:03;;;;;;;7.18;5.45;;;;;;;;;;5066087;28;20361;-64
2023/05/15 12:38:29;;;;;;;7.15;5.35;;;;;;;;;;5072098;28;20487;-61
2023/05/15 12:40:55;;;;;;;10.27;5.00;;;;;;;;;;5070449;28;20033;-61
2023/05/15 12:43:25;;;;;;;5.90;4.45;;;;;;;;;;5069694;28;20104;-63
2023/05/15 12:45:54;;;;;;;7.03;4.75;;;;;;;;;;5068350;28;20020;-61
2023/05/15 12:48:20;;;;;;;9.20;5.20;;;;;;;;;;5069627;28;20499;-61
2023/05/15 12:50:46;;;;;;;8.30;5.53;;;;;;;;;;5070821;28;20040;-61
2023/05/15 12:53:15;;;;;;;8.90;4.47;;;;;;;;;;5071350;28;20036;-61
2023/05/15 12:55:42;;;;;;;6.05;4.20;;;;;;;;;;5070536;28;20032;-61
2023/05/15 12:58:11;;;;;;;6.10;4.30;;;;;;;;;;5068975;28;20047;-61
2023/05/15 13:00:39;;;;;;;7.85;4.80;;;;;;;;;;5056264;28;20060;-61
2023/05/15 13:03:08;;;;;;;8.10;5.63;;;;;;;;;;5069390;28;20123;-61
2023/05/15 13:05:35;;;;;;;10.52;5.80;;;;;;;;;;5070231;28;20035;-63
2023/05/15 13:08:02;;;;;;;6.32;4.88;;;;;;;;;;5070945;28;20038;-61
2023/05/15 13:10:31;;;;;;;6.75;5.60;;;;;;;;;;5072027;28;20111;-61
2023/05/15 13:12:57;;;;;;;6.85;5.25;;;;;;;;;;5068118;28;20056;-61
2023/05/15 13:15:36;;;;;;;7.10;5.25;;;;;;;;;;5070765;28;20063;-62
2023/05/15 13:18:12;;;;;;;8.13;5.60;;;;;;;;;;5068686;28;20028;-62
2023/05/15 13:20:39;;;;;;;8.18;6.05;;;;;;;;;;5051887;28;20032;-63
2023/05/15 13:23:06;;;;;;;7.95;6.22;;;;;;;;;;5055737;28;20450;-62
2023/05/15 13:25:32;;;;;;;7.50;6.55;;;;;;;;;;5071171;28;20033;-62
2023/05/15 13:28:00;;;;;;;9.10;7.15;;;;;;;;;;5069830;28;20494;-62
2023/05/15 13:30:26;;;;;;;12.20;7.78;;;;;;;;;;5066276;28;20392;-62
2023/05/15 13:32:52;;;;;;;8.98;7.20;;;;;;;;;;5069778;28;20032;-62
2023/05/15 13:35:17;;;;;;;10.90;6.85;;;;;;;;;;5070745;28;20407;-63
2023/05/15 13:37:42;;;;;;;9.05;6.80;;;;;;;;;;5069304;28;20041;-62
2023/05/15 13:40:09;;;;;;;10.85;7.57;;;;;;;;;;5068837;28;20055;-62
2023/05/15 13:42:39;;;;;;;10.07;7.53;;;;;;;;;;5070113;28;20056;-62
2023/05/15 13:45:06;;;;;;;11.67;7.87;;;;;;;;;;5070576;28;20491;-62
2023/05/15 13:47:31;;;;;;;10.20;7.82;;;;;;;;;;5071024;28;20533;-62
2023/05/15 13:49:57;;;;;;;12.27;7.47;;;;;;;;;;5071127;28;20032;-62
2023/05/15 13:52:22;;;;;;;8.80;7.05;;;;;;;;;;5073580;28;20475;-62
2023/05/15 13:54:48;;;;;;;8.35;5.95;;;;;;;;;;5074495;28;20029;-62
2023/05/15 13:57:13;;;;;;;8.75;5.80;;;;;;;;;;5073315;28;20239;-62
2023/05/15 13:59:38;;;;;;;8.73;5.07;;;;;;;;;;5072725;28;20396;-63
2023/05/15 14:02:04;;;;;;;7.18;5.50;;;;;;;;;;5070567;28;20150;-62
2023/05/15 14:04:29;;;;;;;6.93;5.00;;;;;;;;;;5072064;28;20473;-63
2023/05/15 14:06:55;;;;;;;6.38;5.40;;;;;;;;;;5072709;28;20361;-62
2023/05/15 14:09:20;;;;;;;7.00;5.35;;;;;;;;;;5072182;28;20036;-62
2023/05/15 14:11:45;;;;;;;8.40;6.13;;;;;;;;;;5072887;28;20024;-62
2023/05/15 14:14:11;;;;;;;12.85;7.80;;;;;;;;;;5071592;28;20094;-62
2023/05/15 14:16:36;;;;;;;13.23;9.27;;;;;;;;;;5072997;28;20456;-62
2023/05/15 14:19:02;;;;;;;13.90;9.57;;;;;;;;;;5071963;28;20063;-62
2023/05/15 14:21:27;;;;;;;14.52;10.52;;;;;;;;;;5073489;28;20024;-62
2023/05/15 14:23:52;;;;;;;15.60;12.52;;;;;;;;;;5071954;28;20400;-62